Time;durP1;ratioP1;P1;durP2;ratioP2;P2;SDS_P1;SDS_P2;PMS_P1;PMS_P2;Temp;Humidity;BMP_temperature;BMP_pressure;BME280_temperature;BME280_humidity;BME280_pressure;Samples;Min_cycle;Max_cycle;Signal;HPM_P1;HPM_P2
2021/04/21 00:00:00;;;;;;;41.50;26.73;;;;;;;6.54;75.97;95208.22;4992006;28;20065;-61
2021/04/21 00:02:26;;;;;;;43.22;26.95;;;;;;;6.65;75.96;95225.56;4990272;28;20129;-62
2021/04/21 00:04:54;;;;;;;46.47;28.92;;;;;;;6.62;76.24;95223.50;4993590;28;20054;-61
2021/04/21 00:07:21;;;;;;;46.33;29.33;;;;;;;6.51;75.87;95214.84;5006381;28;20092;-61
2021/04/21 00:09:48;;;;;;;46.22;28.50;;;;;;;6.64;75.54;95236.44;4991603;28;20049;-60
2021/04/21 00:12:16;;;;;;;37.83;25.77;;;;;;;6.60;75.86;95233.53;4991288;28;20138;-62
2021/04/21 00:14:43;;;;;;;48.58;28.15;;;;;;;6.58;75.75;95237.53;4991331;28;20034;-62
2021/04/21 00:17:09;;;;;;;50.40;30.02;;;;;;;6.48;75.47;95217.25;4992950;28;20080;-62
2021/04/21 00:19:37;;;;;;;38.17;24.48;;;;;;;6.39;75.38;95210.97;4991674;28;20129;-61
2021/04/21 00:22:04;;;;;;;47.70;27.67;;;;;;;6.50;75.65;95223.06;4991014;28;20027;-61
2021/04/21 00:24:31;;;;;;;44.60;26.77;;;;;;;6.32;75.59;95200.72;4991017;28;20042;-61
2021/04/21 00:26:57;;;;;;;45.17;26.45;;;;;;;6.38;76.24;95206.75;4991070;28;20035;-61
2021/04/21 00:29:24;;;;;;;45.20;26.33;;;;;;;6.44;75.94;95221.50;4991137;28;20022;-62
2021/04/21 00:31:50;;;;;;;37.55;24.60;;;;;;;6.37;76.14;95213.91;4992776;28;20029;-61
2021/04/21 00:34:18;;;;;;;36.88;23.77;;;;;;;6.20;75.70;95187.09;5005697;28;20087;-62
2021/04/21 00:36:47;;;;;;;36.97;24.33;;;;;;;6.36;75.68;95220.25;4989517;28;20598;-61
2021/04/21 00:39:14;;;;;;;38.80;25.35;;;;;;;6.14;75.68;95188.97;4990895;28;20051;-60
2021/04/21 00:42:05;;;;;;;36.58;24.05;;;;;;;6.20;75.92;95195.00;4990686;28;20170;-62
2021/04/21 00:44:45;;;;;;;38.93;25.50;;;;;;;6.29;75.90;95203.91;4989376;28;20404;-62
2021/04/21 00:47:18;;;;;;;34.38;23.52;;;;;;;6.17;76.00;95188.41;4990466;28;20273;-61
2021/04/21 00:50:11;;;;;;;40.05;24.13;;;;;;;6.25;75.53;95206.31;4992684;28;20029;-60
2021/04/21 00:52:48;;;;;;;37.60;24.45;;;;;;;6.24;76.10;95199.47;4990689;28;20051;-61
2021/04/21 00:55:37;;;;;;;41.85;24.95;;;;;;;6.22;75.50;95192.88;4990529;28;20050;-60
2021/04/21 00:58:06;;;;;;;36.88;21.58;;;;;;;6.22;76.28;95201.56;4982210;28;20051;-61
2021/04/21 01:00:35;;;;;;;32.78;22.75;;;;;;;6.21;75.70;95201.84;4990352;28;20101;-62
2021/04/21 01:03:06;;;;;;;34.17;21.70;;;;;;;6.17;75.98;95195.53;4990070;28;20034;-61
2021/04/21 01:05:40;;;;;;;31.00;20.88;;;;;;;6.15;75.58;95195.81;4990294;28;20099;-61
2021/04/21 01:08:09;;;;;;;31.38;20.52;;;;;;;6.00;76.23;95166.88;4992093;28;20039;-61
2021/04/21 01:10:42;;;;;;;28.20;19.45;;;;;;;5.71;75.62;95127.94;4990789;28;20041;-61
2021/04/21 01:13:08;;;;;;;34.83;20.23;;;;;;;5.70;76.20;95125.56;4989967;28;20054;-61
2021/04/21 01:15:38;;;;;;;27.15;19.60;;;;;;;5.40;75.84;95081.69;4990098;28;20039;-60
2021/04/21 01:18:07;;;;;;;26.02;19.20;;;;;;;6.08;75.75;95192.69;4989886;28;20049;-61
2021/04/21 01:20:57;;;;;;;23.80;18.67;;;;;;;6.06;75.72;95192.19;4990014;28;20042;-61
2021/04/21 01:23:44;;;;;;;27.00;18.38;;;;;;;6.03;75.55;95192.72;4988533;28;20027;-60
2021/04/21 01:26:10;;;;;;;22.40;17.90;;;;;;;5.98;75.81;95201.44;4990027;28;20480;-62
2021/04/21 01:28:39;;;;;;;23.27;18.00;;;;;;;5.96;75.78;95203.59;4991539;28;20073;-60
2021/04/21 01:31:06;;;;;;;26.08;17.08;;;;;;;5.67;75.77;95155.94;4989981;28;20130;-62
2021/04/21 01:33:32;;;;;;;19.98;15.73;;;;;;;5.69;75.23;95156.47;4989577;28;20034;-61
2021/04/21 01:36:05;;;;;;;25.52;18.10;;;;;;;5.62;75.76;95155.94;4989722;28;20048;-61
2021/04/21 01:38:31;;;;;;;;;;;;;;;5.85;75.79;95191.47;4989968;28;20034;-58
2021/04/21 01:41:01;;;;;;;19.63;15.45;;;;;;;5.74;75.76;95174.91;4991600;28;20384;-60
2021/04/21 01:43:33;;;;;;;22.35;17.45;;;;;;;5.51;75.82;95146.50;4989565;28;20129;-61
2021/04/21 01:46:02;;;;;;;22.38;17.40;;;;;;;5.82;75.90;95193.88;4989428;28;20045;-60
2021/04/21 01:48:28;;;;;;;21.73;15.98;;;;;;;5.01;75.76;95071.03;5004414;28;20093;-61
2021/04/21 01:50:54;;;;;;;20.98;16.38;;;;;;;5.42;75.71;95142.84;4989340;28;20061;-60
2021/04/21 01:53:47;;;;;;;19.13;16.15;;;;;;;5.76;76.12;95194.97;4989171;28;20065;-61
2021/04/21 01:56:24;;;;;;;22.52;17.00;;;;;;;5.72;75.92;95195.47;4989395;28;20492;-62
2021/04/21 01:59:11;;;;;;;22.67;16.55;;;;;;;5.69;75.81;95190.78;4991127;28;20026;-60
2021/04/21 02:01:55;;;;;;;23.13;17.98;;;;;;;5.66;76.06;95199.22;5004533;28;20049;-61
2021/04/21 02:04:29;;;;;;;24.88;17.20;;;;;;;5.61;76.15;95193.97;4988457;28;20038;-62
2021/04/21 02:07:03;;;;;;;25.38;17.52;;;;;;;5.59;75.65;95197.94;4988215;28;20049;-60
2021/04/21 02:09:54;;;;;;;23.50;17.73;;;;;;;5.54;75.69;95196.09;4989508;28;20047;-61
2021/04/21 02:12:36;;;;;;;20.67;15.77;;;;;;;5.51;75.76;95196.63;4989155;28;20038;-60
2021/04/21 02:15:26;;;;;;;22.15;16.38;;;;;;;5.35;76.01;95177.44;4989202;28;20034;-61
2021/04/21 02:18:10;;;;;;;20.40;16.58;;;;;;;5.44;76.20;95191.66;4989002;28;20073;-61
2021/04/21 02:21:02;;;;;;;24.98;16.77;;;;;;;5.30;75.98;95181.94;4989263;28;20158;-61
2021/04/21 02:23:34;;;;;;;26.45;18.15;;;;;;;5.09;76.19;95145.09;4989009;28;20037;-60
2021/04/21 02:25:59;;;;;;;19.55;16.17;;;;;;;5.36;76.15;95191.41;4991215;28;20484;-61
2021/04/21 02:28:43;;;;;;;21.15;15.48;;;;;;;5.36;76.27;95196.69;4989010;28;20042;-61
2021/04/21 02:31:23;;;;;;;25.00;16.80;;;;;;;5.35;76.69;95193.28;4988876;28;20051;-61
2021/04/21 02:34:07;;;;;;;22.60;16.27;;;;;;;4.89;76.35;95130.13;4989040;28;20042;-61
2021/04/21 02:37:07;;;;;;;24.75;16.20;;;;;;;5.34;76.65;95196.19;4989063;28;20082;-60
2021/04/21 02:39:57;;;;;;;16.73;14.70;;;;;;;5.32;77.04;95191.16;4989110;28;20501;-60
2021/04/21 02:43:00;;;;;;;23.98;16.08;;;;;;;5.31;77.14;95192.22;4987644;28;20061;-61
2021/04/21 02:45:54;;;;;;;17.40;13.95;;;;;;;5.29;76.68;95183.81;4989071;28;20042;-60
2021/04/21 02:49:00;;;;;;;15.05;13.15;;;;;;;5.29;76.94;95186.44;4988884;28;20038;-61
2021/04/21 02:51:44;;;;;;;14.70;13.13;;;;;;;4.56;76.86;95070.94;4988725;28;20042;-62
2021/04/21 02:54:19;;;;;;;18.30;14.20;;;;;;;5.30;76.80;95185.38;4988942;28;20092;-61
2021/04/21 02:57:00;;;;;;;19.52;14.57;;;;;;;5.05;76.76;95145.91;4990029;28;20085;-61
2021/04/21 02:59:51;;;;;;;19.10;15.60;;;;;;;5.10;76.57;95159.06;4992686;28;20061;-62
2021/04/21 03:02:29;;;;;;;18.35;14.85;;;;;;;5.18;76.72;95167.22;4992521;28;20495;-61
2021/04/21 03:04:58;;;;;;;19.25;14.18;;;;;;;5.22;76.89;95180.66;4994635;28;20101;-60
2021/04/21 03:07:30;;;;;;;16.98;13.52;;;;;;;5.10;76.75;95162.50;4991136;28;20042;-60
2021/04/21 03:10:09;;;;;;;16.75;14.40;;;;;;;4.85;76.64;95123.03;4992923;28;20552;-59
2021/04/21 03:12:38;;;;;;;16.40;14.20;;;;;;;5.15;76.57;95177.50;4991025;28;20385;-60
2021/04/21 03:15:08;;;;;;;18.95;14.95;;;;;;;5.06;76.47;95165.94;4992470;28;20030;-61
2021/04/21 03:17:34;;;;;;;14.73;12.63;;;;;;;4.97;76.17;95157.81;4992151;28;20030;-61
2021/04/21 03:20:22;;;;;;;17.55;14.55;;;;;;;5.07;76.54;95184.13;4994150;28;20100;-61
2021/04/21 03:22:54;;;;;;;16.13;13.55;;;;;;;5.04;76.50;95181.25;4992490;28;20488;-61
2021/04/21 03:25:29;;;;;;;21.95;16.27;;;;;;;4.82;76.47;95152.56;4992319;28;20042;-60
2021/04/21 03:27:59;;;;;;;20.58;15.80;;;;;;;4.92;76.42;95176.25;4991884;28;20041;-61
2021/04/21 03:30:28;;;;;;;22.08;15.85;;;;;;;4.93;76.52;95181.25;4992181;28;20047;-62
2021/04/21 03:33:09;;;;;;;18.70;14.48;;;;;;;4.78;76.70;95159.41;4991878;28;20042;-60
2021/04/21 03:35:37;;;;;;;19.67;13.38;;;;;;;4.84;76.64;95169.69;4991907;28;20101;-61
2021/04/21 03:38:10;;;;;;;23.58;15.82;;;;;;;4.79;77.00;95164.41;4993596;28;20026;-61
2021/04/21 03:40:37;;;;;;;25.50;16.38;;;;;;;4.54;77.11;95133.63;4992197;28;20061;-64
2021/04/21 03:43:04;;;;;;;16.67;14.48;;;;;;;4.84;77.13;95182.06;5006857;28;20069;-62
2021/04/21 03:45:30;;;;;;;20.80;15.88;;;;;;;4.77;77.35;95177.06;4990476;28;20038;-59
2021/04/21 03:47:57;;;;;;;23.35;15.70;;;;;;;4.56;77.05;95128.91;4991277;28;20069;-61
2021/04/21 03:50:24;;;;;;;22.42;16.08;;;;;;;4.57;77.22;95140.22;4991821;28;20064;-61
2021/04/21 03:52:55;;;;;;;23.52;15.10;;;;;;;4.65;77.19;95155.47;4992263;28;20569;-63
2021/04/21 03:55:22;;;;;;;22.55;16.05;;;;;;;4.77;77.17;95168.38;4991646;28;20150;-60
2021/04/21 03:57:51;;;;;;;20.42;14.70;;;;;;;4.74;77.00;95169.69;4991279;28;20088;-61
2021/04/21 04:00:19;;;;;;;26.23;16.83;;;;;;;4.72;77.01;95173.66;4991562;28;20117;-60
2021/04/21 04:02:54;;;;;;;18.95;14.85;;;;;;;4.72;77.03;95165.75;4991350;28;20039;-63
2021/04/21 04:05:24;;;;;;;25.27;16.30;;;;;;;4.69;77.00;95170.47;5006399;28;20499;-60
2021/04/21 04:07:53;;;;;;;20.63;15.68;;;;;;;4.68;77.10;95173.38;4992679;28;20030;-60
2021/04/21 04:10:20;;;;;;;26.67;17.88;;;;;;;4.46;76.88;95131.53;4991371;28;20050;-61
2021/04/21 04:12:47;;;;;;;19.23;15.75;;;;;;;4.66;77.04;95175.50;4991000;28;20046;-60
2021/04/21 04:15:14;;;;;;;20.08;15.63;;;;;;;4.63;77.10;95176.81;4991176;28;20042;-59
2021/04/21 04:17:46;;;;;;;17.27;14.30;;;;;;;4.65;77.25;95174.69;4990879;28;20057;-59
2021/04/21 04:20:14;;;;;;;20.80;15.93;;;;;;;4.34;77.44;95118.63;4991165;28;20027;-61
2021/04/21 04:22:44;;;;;;;22.45;16.27;;;;;;;4.51;77.09;95139.44;4992907;28;20046;-59
2021/04/21 04:25:12;;;;;;;19.98;14.13;;;;;;;4.75;77.36;95178.38;4991103;28;20050;-58
2021/04/21 04:27:39;;;;;;;19.92;14.52;;;;;;;4.62;77.00;95143.63;4990842;28;20073;-59
2021/04/21 04:30:06;;;;;;;14.60;12.77;;;;;;;4.82;77.19;95171.00;4990963;28;20045;-60
2021/04/21 04:32:36;;;;;;;16.75;14.02;;;;;;;4.70;77.08;95148.34;4990535;28;20137;-60
2021/04/21 04:35:03;;;;;;;15.35;13.52;;;;;;;4.93;76.96;95175.19;4992797;28;20035;-60
2021/04/21 04:37:30;;;;;;;16.98;13.82;;;;;;;4.85;76.92;95152.00;4990644;28;20038;-59
2021/04/21 04:39:55;;;;;;;14.00;11.85;;;;;;;4.92;76.67;95152.53;4990770;28;20030;-60
2021/04/21 04:42:21;;;;;;;14.43;10.40;;;;;;;5.19;76.54;95176.72;4988980;28;20870;-59
2021/04/21 04:44:49;;;;;;;12.18;11.02;;;;;;;4.83;76.36;95118.03;4990698;28;20120;-60
2021/04/21 04:47:25;;;;;;;11.73;10.63;;;;;;;5.14;76.32;95134.53;5005378;28;20374;-60
2021/04/21 04:50:08;;;;;;;12.13;10.55;;;;;;;5.50;75.74;95173.19;4992520;28;20073;-60
2021/04/21 04:52:40;;;;;;;10.23;9.10;;;;;;;5.37;75.12;95137.59;5005832;28;20113;-58
2021/04/21 04:55:08;;;;;;;11.65;9.95;;;;;;;5.81;75.60;95200.22;4990270;28;20093;-60
2021/04/21 04:57:33;;;;;;;9.68;8.77;;;;;;;5.82;75.00;95184.09;4989989;28;20034;-59
2021/04/21 05:00:05;;;;;;;9.20;8.40;;;;;;;5.29;74.25;95078.31;4990355;28;20038;-62
2021/04/21 05:02:37;;;;;;;9.55;8.43;;;;;;;6.10;74.26;95179.22;4990143;28;20042;-61
2021/04/21 05:05:09;;;;;;;9.70;8.68;;;;;;;5.96;73.63;95140.22;4992375;28;20105;-59
2021/04/21 05:07:37;;;;;;;9.85;7.90;;;;;;;6.38;73.34;95198.84;4990532;28;20038;-58
2021/04/21 05:10:06;;;;;;;9.68;8.30;;;;;;;5.85;72.25;95108.84;4990426;28;20050;-60
2021/04/21 05:12:37;;;;;;;7.90;7.15;;;;;;;6.38;72.07;95182.97;4978458;28;20117;-59
2021/04/21 05:15:03;;;;;;;10.20;8.60;;;;;;;6.36;72.01;95200.97;4994289;28;20065;-59
2021/04/21 05:17:59;;;;;;;9.13;8.25;;;;;;;5.99;71.28;95144.97;4989853;28;20026;-61
2021/04/21 05:20:43;;;;;;;8.77;7.97;;;;;;;6.46;71.73;95206.19;4989278;28;20059;-60
2021/04/21 05:23:17;;;;;;;8.82;8.05;;;;;;;6.53;71.34;95221.72;4991840;28;20095;-60
2021/04/21 05:26:04;;;;;;;11.73;8.63;;;;;;;6.59;71.69;95217.97;4990507;28;20045;-60
2021/04/21 05:28:44;;;;;;;9.32;7.90;;;;;;;6.34;72.05;95224.22;4989731;28;20088;-60
2021/04/21 05:31:55;;;;;;;9.32;8.18;;;;;;;6.44;71.56;95224.94;4989829;28;20065;-60
2021/04/21 05:35:07;;;;;;;9.40;8.27;;;;;;;6.64;71.23;95229.28;4989736;28;20489;-59
2021/04/21 05:38:06;;;;;;;9.98;8.23;;;;;;;6.90;71.16;95226.44;4989339;28;20034;-59
2021/04/21 05:41:06;;;;;;;9.40;8.43;;;;;;;7.05;70.84;95223.66;4988063;28;20398;-59
2021/04/21 05:43:50;;;;;;;12.65;9.63;;;;;;;7.22;70.93;95228.53;4989118;28;20034;-60
2021/04/21 05:46:37;;;;;;;11.65;9.38;;;;;;;7.39;71.06;95222.78;4989600;28;20048;-60
2021/04/21 05:49:24;;;;;;;13.85;8.48;;;;;;;7.42;69.80;95211.63;4989267;28;20168;-60
2021/04/21 05:51:57;;;;;;;12.25;8.73;;;;;;;7.68;70.08;95234.13;4989076;28;20046;-59
2021/04/21 05:54:28;;;;;;;12.38;9.68;;;;;;;7.39;69.35;95236.03;4989444;28;20046;-59
2021/04/21 05:57:04;;;;;;;11.60;9.52;;;;;;;6.99;70.93;95230.84;4987810;28;20162;-60
2021/04/21 05:59:45;;;;;;;13.68;9.25;;;;;;;7.07;70.75;95216.25;4989409;28;20429;-58
2021/04/21 06:02:12;;;;;;;11.98;9.45;;;;;;;7.36;69.90;95228.63;4989186;28;20037;-61
2021/04/21 06:04:37;;;;;;;9.85;8.88;;;;;;;7.01;69.56;95177.66;4989843;28;20365;-59
2021/04/21 06:07:12;;;;;;;10.80;9.25;;;;;;;7.84;69.29;95228.63;4988801;28;20053;-60
2021/04/21 06:09:39;;;;;;;11.05;8.80;;;;;;;8.10;68.90;95245.78;4989269;28;20539;-59
2021/04/21 06:12:09;;;;;;;9.57;8.57;;;;;;;8.19;68.50;95233.47;4988910;28;20508;-60
2021/04/21 06:14:35;;;;;;;12.93;8.27;;;;;;;8.07;67.83;95174.81;4989019;28;20034;-60
2021/04/21 06:17:02;;;;;;;12.13;7.97;;;;;;;8.50;67.90;95209.22;4990419;28;20089;-59
2021/04/21 06:19:27;;;;;;;13.00;8.15;;;;;;;8.77;67.29;95219.13;4988818;28;20050;-59
2021/04/21 06:21:52;;;;;;;8.93;6.55;;;;;;;8.75;66.79;95195.56;4987453;28;20137;-59
2021/04/21 06:24:18;;;;;;;8.65;7.03;;;;;;;9.13;65.45;95239.75;5003932;28;20045;-58
2021/04/21 06:26:43;;;;;;;10.85;7.30;;;;;;;9.23;64.98;95227.09;4988742;28;20046;-59
2021/04/21 06:29:10;;;;;;;7.45;6.85;;;;;;;9.38;64.93;95221.50;4990766;28;20057;-59
2021/04/21 06:31:45;;;;;;;7.85;6.75;;;;;;;9.63;64.46;95238.84;4992089;28;20046;-59
2021/04/21 06:34:13;;;;;;;8.38;7.47;;;;;;;9.79;64.49;95241.19;4992998;28;20133;-59
2021/04/21 06:36:55;;;;;;;7.95;6.72;;;;;;;9.92;64.01;95236.94;4992885;28;20526;-58
2021/04/21 06:39:23;;;;;;;7.30;6.68;;;;;;;9.88;63.28;95211.00;4993053;28;20049;-59
2021/04/21 06:41:55;;;;;;;7.03;6.43;;;;;;;10.11;62.99;95235.75;4991435;28;20068;-58
2021/04/21 06:44:42;;;;;;;6.88;6.20;;;;;;;10.21;62.33;95244.59;5008174;28;20569;-61
2021/04/21 06:47:25;;;;;;;6.85;6.15;;;;;;;10.00;61.03;95228.28;4994547;28;20022;-60
2021/04/21 06:49:57;;;;;;;7.07;5.65;;;;;;;10.32;61.51;95243.31;4993264;28;20037;-60
2021/04/21 06:52:22;;;;;;;7.43;5.93;;;;;;;9.41;61.62;95212.16;4992729;28;20034;-59
2021/04/21 06:55:08;;;;;;;7.38;6.22;;;;;;;9.64;61.09;95239.63;4992483;28;20041;-59
2021/04/21 06:57:34;;;;;;;10.63;8.80;;;;;;;9.89;62.71;95251.63;5007477;28;20039;-59
2021/04/21 07:00:03;;;;;;;10.27;9.23;;;;;;;9.93;62.58;95249.13;4992657;28;20496;-59
2021/04/21 07:02:45;;;;;;;10.40;9.07;;;;;;;9.75;63.39;95222.41;4992456;28;20417;-59
2021/04/21 07:05:35;;;;;;;10.60;9.25;;;;;;;9.20;64.63;95251.56;4992485;28;20105;-61
2021/04/21 07:08:04;;;;;;;9.85;8.98;;;;;;;9.85;63.53;95247.97;4994236;28;20369;-58
2021/04/21 07:10:31;;;;;;;12.15;9.88;;;;;;;9.99;63.59;95258.59;4992669;28;20515;-58
2021/04/21 07:12:58;;;;;;;12.18;9.60;;;;;;;10.23;63.66;95259.16;4992093;28;20511;-57
2021/04/21 07:15:25;;;;;;;9.52;8.60;;;;;;;10.00;62.99;95250.31;4991209;28;20432;-59
2021/04/21 07:17:51;;;;;;;10.23;9.23;;;;;;;10.67;61.94;95249.72;4990935;28;20042;-58
2021/04/21 07:20:18;;;;;;;13.88;8.95;;;;;;;10.86;60.14;95249.56;4992561;28;20026;-58
2021/04/21 07:22:45;;;;;;;10.05;7.88;;;;;;;10.86;60.03;95234.38;4993946;28;20027;-58
2021/04/21 07:25:14;;;;;;;7.95;7.15;;;;;;;11.06;58.43;95262.38;4992155;28;20684;-58
2021/04/21 07:27:42;;;;;;;16.23;7.85;;;;;;;10.80;58.93;95266.69;4991983;28;20061;-58
2021/04/21 07:30:08;;;;;;;9.60;8.38;;;;;;;10.57;59.08;95269.34;4992251;28;20041;-58
2021/04/21 07:32:43;;;;;;;8.70;7.07;;;;;;;10.49;58.67;95255.97;4991956;28;20401;-58
2021/04/21 07:35:09;;;;;;;8.63;7.60;;;;;;;10.88;58.73;95258.00;4993944;28;20042;-57
2021/04/21 07:37:36;;;;;;;10.20;7.80;;;;;;;11.27;57.42;95265.31;4990703;28;20042;-59
2021/04/21 07:40:37;;;;;;;8.70;6.30;;;;;;;11.41;56.11;95251.91;4991925;28;20050;-58
2021/04/21 07:43:22;;;;;;;10.80;6.28;;;;;;;11.70;56.84;95265.50;4989324;28;20038;-58
2021/04/21 07:45:50;;;;;;;8.77;6.60;;;;;;;11.86;55.24;95268.59;4991734;28;20447;-57
2021/04/21 07:48:30;;;;;;;7.72;6.95;;;;;;;11.42;55.38;95258.81;4991538;28;20548;-58
2021/04/21 07:50:56;;;;;;;7.10;6.50;;;;;;;11.45;55.73;95240.34;4991792;28;20043;-58
2021/04/21 07:53:22;;;;;;;9.90;6.22;;;;;;;10.72;55.28;95102.50;4991267;28;20521;-57
2021/04/21 07:55:47;;;;;;;10.50;6.30;;;;;;;11.82;54.69;95256.97;4993263;28;20073;-57
2021/04/21 07:58:12;;;;;;;9.30;5.40;;;;;;;12.19;54.07;95246.88;4991304;28;20047;-58
2021/04/21 08:00:43;;;;;;;6.68;6.05;;;;;;;12.27;51.37;95232.78;4991504;28;20039;-58
2021/04/21 08:03:08;;;;;;;6.70;6.05;;;;;;;12.46;51.41;95256.50;4991395;28;20129;-58
2021/04/21 08:05:34;;;;;;;7.78;6.28;;;;;;;12.73;51.68;95253.50;4991261;28;20122;-58
2021/04/21 08:08:03;;;;;;;6.53;6.03;;;;;;;12.94;50.59;95259.00;4992984;28;20033;-59
2021/04/21 08:10:33;;;;;;;6.85;6.22;;;;;;;13.22;49.83;95256.81;4991529;28;20039;-58
2021/04/21 08:13:00;;;;;;;6.38;5.78;;;;;;;13.40;49.52;95256.75;4989949;28;20057;-59
2021/04/21 08:15:31;;;;;;;8.52;6.47;;;;;;;13.58;49.45;95257.50;4991319;28;20034;-58
2021/04/21 08:18:04;;;;;;;6.53;5.97;;;;;;;13.70;49.86;95257.63;4991077;28;20034;-58
2021/04/21 08:20:43;;;;;;;7.20;6.55;;;;;;;13.45;48.69;95262.72;4990966;28;20033;-59
2021/04/21 08:23:09;;;;;;;6.75;6.15;;;;;;;13.83;49.02;95258.53;4991526;28;20030;-58
2021/04/21 08:25:35;;;;;;;6.68;6.10;;;;;;;13.95;48.16;95253.25;4991562;28;20034;-58
2021/04/21 08:28:02;;;;;;;7.43;6.72;;;;;;;14.10;47.44;95268.75;4989563;28;20093;-59
2021/04/21 08:30:30;;;;;;;7.88;7.07;;;;;;;14.10;47.56;95246.59;4986136;28;20042;-58
2021/04/21 08:32:55;;;;;;;7.95;7.25;;;;;;;14.22;46.71;95250.13;5005705;28;20388;-59
2021/04/21 08:35:21;;;;;;;10.93;8.38;;;;;;;14.43;46.80;95252.03;4991151;28;20030;-58
2021/04/21 08:37:47;;;;;;;8.43;7.47;;;;;;;13.98;46.08;95247.28;4991362;28;20034;-58
2021/04/21 08:40:16;;;;;;;8.35;7.55;;;;;;;14.25;45.92;95238.78;4990714;28;20053;-57
2021/04/21 08:42:42;;;;;;;9.80;8.80;;;;;;;13.40;46.55;95256.75;4990526;28;20042;-57
2021/04/21 08:45:11;;;;;;;9.35;8.55;;;;;;;13.35;46.59;95254.25;4990816;28;20034;-57
2021/04/21 08:47:39;;;;;;;8.50;7.75;;;;;;;13.78;46.35;95262.16;4990590;28;20489;-57
2021/04/21 08:50:07;;;;;;;10.32;9.30;;;;;;;14.07;45.88;95231.94;4992339;28;20030;-58
2021/04/21 08:52:44;;;;;;;9.55;8.55;;;;;;;14.55;45.67;95252.94;5005383;28;20035;-58
2021/04/21 08:55:12;;;;;;;10.18;8.05;;;;;;;14.61;43.66;95250.06;4990642;28;20527;-57
2021/04/21 08:57:39;;;;;;;10.05;9.15;;;;;;;14.71;43.23;95250.47;4988759;28;20442;-58
2021/04/21 09:00:05;;;;;;;9.93;9.02;;;;;;;14.86;43.45;95251.75;5005281;28;20034;-58
2021/04/21 09:02:32;;;;;;;10.43;9.35;;;;;;;14.94;43.35;95242.84;4990115;28;20041;-59
2021/04/21 09:04:58;;;;;;;10.60;9.70;;;;;;;15.05;42.03;95248.63;4992218;28;20026;-59
2021/04/21 09:07:23;;;;;;;9.82;9.02;;;;;;;14.86;41.48;95230.34;4990190;28;20060;-59
2021/04/21 09:09:49;;;;;;;8.38;7.68;;;;;;;15.07;41.97;95249.84;4990083;28;20101;-59
2021/04/21 09:12:14;;;;;;;9.65;8.85;;;;;;;15.07;40.86;95241.78;4989766;28;20145;-60
2021/04/21 09:14:40;;;;;;;9.70;8.93;;;;;;;14.58;42.10;95243.47;4988581;28;20034;-59
2021/04/21 09:17:06;;;;;;;9.57;8.77;;;;;;;15.03;41.83;95240.09;4991762;28;20396;-60
2021/04/21 09:19:35;;;;;;;9.50;8.60;;;;;;;15.30;41.51;95252.13;4988818;28;20046;-59
2021/04/21 09:22:06;;;;;;;10.10;8.90;;;;;;;14.32;42.21;95238.25;4988721;28;20039;-59
2021/04/21 09:24:36;;;;;;;11.35;9.88;;;;;;;14.54;42.30;95221.94;4988570;28;20058;-59
2021/04/21 09:27:32;;;;;;;10.43;8.85;;;;;;;14.98;41.13;95234.94;4990109;28;20669;-59
2021/04/21 09:30:22;;;;;;;11.52;8.93;;;;;;;15.31;40.97;95240.31;4989716;28;20065;-59
2021/04/21 09:32:48;;;;;;;9.93;8.43;;;;;;;15.43;39.90;95242.25;5004413;28;20034;-59
2021/04/21 09:35:26;;;;;;;10.23;9.23;;;;;;;15.13;40.39;95249.63;4989882;28;20029;-59
2021/04/21 09:37:54;;;;;;;12.02;8.93;;;;;;;15.27;39.94;95236.72;4990043;28;20030;-60
2021/04/21 09:40:41;;;;;;;9.95;9.02;;;;;;;15.53;38.28;95239.13;4989708;28;20042;-60
2021/04/21 09:43:08;;;;;;;10.65;9.65;;;;;;;15.55;39.11;95239.56;4989477;28;20512;-60
2021/04/21 09:45:38;;;;;;;9.50;8.60;;;;;;;15.77;39.72;95233.06;4989699;28;20129;-59
2021/04/21 09:48:06;;;;;;;9.85;8.95;;;;;;;16.04;39.46;95239.66;4989386;28;20042;-60
2021/04/21 09:50:32;;;;;;;9.18;8.38;;;;;;;16.07;37.84;95218.31;4989056;28;20407;-59
2021/04/21 09:52:57;;;;;;;10.63;9.13;;;;;;;15.66;37.38;95235.41;4990995;28;20023;-59
2021/04/21 09:55:29;;;;;;;10.55;9.13;;;;;;;16.20;37.95;95226.34;4989185;28;20129;-61
2021/04/21 09:57:54;;;;;;;10.30;9.40;;;;;;;16.22;36.48;95237.50;4989160;28;20089;-61
2021/04/21 10:00:24;;;;;;;9.07;8.18;;;;;;;16.49;36.88;95234.13;4989381;28;20038;-60
2021/04/21 10:02:49;;;;;;;10.55;9.27;;;;;;;16.33;36.18;95235.94;4987868;28;20045;-60
2021/04/21 10:05:30;;;;;;;10.27;9.00;;;;;;;16.73;35.83;95238.66;4988855;28;20117;-61
2021/04/21 10:08:26;;;;;;;12.38;9.63;;;;;;;16.57;35.05;95237.78;4990862;28;20118;-62
2021/04/21 10:11:01;;;;;;;10.27;9.48;;;;;;;16.82;34.27;95238.53;4989536;28;20048;-60
2021/04/21 10:13:39;;;;;;;9.68;8.77;;;;;;;16.16;35.60;95241.53;4987628;28;20121;-61
2021/04/21 10:16:05;;;;;;;9.63;8.85;;;;;;;16.56;34.98;95214.75;4989084;28;20038;-60
2021/04/21 10:18:31;;;;;;;10.77;9.30;;;;;;;17.05;35.27;95230.75;4988941;28;20038;-60
2021/04/21 10:20:56;;;;;;;10.52;9.52;;;;;;;17.51;33.93;95237.34;4988912;28;20114;-60
2021/04/21 10:23:21;;;;;;;9.95;9.05;;;;;;;17.07;33.10;95221.19;4987542;28;20022;-60
2021/04/21 10:25:47;;;;;;;9.98;9.10;;;;;;;17.81;33.45;95229.66;4991032;28;20139;-59
2021/04/21 10:28:12;;;;;;;8.63;7.82;;;;;;;18.15;32.86;95222.75;4988839;28;20092;-61
2021/04/21 10:30:38;;;;;;;8.77;8.07;;;;;;;17.75;32.90;95232.94;4988999;28;20066;-62
2021/04/21 10:33:04;;;;;;;9.82;9.02;;;;;;;17.62;31.70;95197.25;4988617;28;20515;-60
2021/04/21 10:35:30;;;;;;;9.60;8.70;;;;;;;17.91;32.23;95220.25;4988950;28;20047;-61
2021/04/21 10:37:56;;;;;;;9.95;9.05;;;;;;;18.17;31.97;95198.97;4990416;28;20469;-59
2021/04/21 10:40:26;;;;;;;9.93;8.98;;;;;;;18.45;31.10;95214.19;4988783;28;20034;-60
2021/04/21 10:42:52;;;;;;;9.85;8.95;;;;;;;18.62;30.84;95221.09;4988347;28;20472;-60
2021/04/21 10:45:21;;;;;;;9.82;9.00;;;;;;;18.63;30.04;95207.28;4988463;28;20042;-59
2021/04/21 10:47:49;;;;;;;9.43;8.50;;;;;;;18.80;30.43;95208.81;4988396;28;20190;-61
2021/04/21 10:50:34;;;;;;;8.95;8.15;;;;;;;18.94;30.57;95187.53;4988703;28;20680;-61
2021/04/21 10:53:00;;;;;;;9.25;8.55;;;;;;;19.28;30.57;95198.53;4990355;28;20497;-60
2021/04/21 10:55:28;;;;;;;8.90;8.10;;;;;;;19.42;28.82;95198.81;4988425;28;20047;-59
2021/04/21 10:58:03;;;;;;;8.18;7.47;;;;;;;19.48;29.11;95196.59;4987992;28;20053;-61
2021/04/21 11:00:35;;;;;;;9.15;8.25;;;;;;;19.58;28.72;95184.41;4988800;28;20733;-61
2021/04/21 11:03:06;;;;;;;8.77;7.97;;;;;;;19.28;28.98;95116.84;4988254;28;20042;-60
2021/04/21 11:05:42;;;;;;;8.77;7.97;;;;;;;19.91;28.22;95189.22;4988821;28;20034;-61
2021/04/21 11:08:29;;;;;;;7.82;7.20;;;;;;;20.02;28.03;95178.59;4990409;28;20034;-62
2021/04/21 11:11:03;;;;;;;8.73;7.90;;;;;;;20.20;28.09;95180.41;4989152;28;20035;-63
2021/04/21 11:13:35;;;;;;;8.73;7.88;;;;;;;19.93;27.77;95179.63;4988462;28;20038;-61
2021/04/21 11:16:24;;;;;;;8.90;8.02;;;;;;;20.02;29.33;95173.97;4987181;28;20038;-61
2021/04/21 11:18:49;;;;;;;10.13;9.32;;;;;;;19.31;29.85;95175.47;4982953;28;20093;-61
2021/04/21 11:21:19;;;;;;;12.32;10.13;;;;;;;19.08;29.85;95184.31;4991714;28;20460;-64
2021/04/21 11:24:09;;;;;;;10.20;9.13;;;;;;;18.99;30.63;95180.25;4992744;28;20030;-62
2021/04/21 11:26:37;;;;;;;10.43;9.43;;;;;;;18.93;30.18;95169.78;4991937;28;20038;-61
2021/04/21 11:29:13;;;;;;;10.38;9.35;;;;;;;18.90;30.12;95177.81;4992226;28;20049;-61
2021/04/21 11:34:19;;;;;;;9.65;8.68;;;;;;;18.37;30.54;95170.16;4991919;28;20423;-60
2021/04/21 11:37:16;;;;;;;9.63;8.82;;;;;;;17.13;32.36;95176.81;4990445;28;20101;-62
2021/04/21 11:39:42;;;;;;;10.07;8.40;;;;;;;17.82;31.95;95179.31;4991904;28;20152;-61
2021/04/21 11:42:38;;;;;;;10.18;8.07;;;;;;;17.96;31.58;95168.88;4991677;28;20485;-64
2021/04/21 11:45:23;;;;;;;8.82;8.02;;;;;;;17.93;31.18;95164.97;4991648;28;20038;-59
2021/04/21 11:48:09;;;;;;;9.57;8.63;;;;;;;17.97;31.18;95167.75;4991658;28;20035;-62
2021/04/21 11:50:34;;;;;;;9.38;8.57;;;;;;;16.88;31.71;95175.38;4981200;28;20056;-61
2021/04/21 11:53:09;;;;;;;9.48;8.73;;;;;;;17.42;31.36;95172.19;4993295;28;20026;-62
2021/04/21 11:58:20;;;;;;;8.38;7.57;;;;;;;17.41;30.83;95168.72;4991570;28;20054;-63
2021/04/21 12:00:51;;;;;;;8.45;7.72;;;;;;;18.07;30.56;95148.38;4991555;28;20054;-61